DW2685 Weather Reports


time (UTC)temp
C
wind
direction
speed
KPH
gust
KPH
rain 1hr
cm
rain 24hr
cm
rain mn
cm
humidity
%
barometer
mb
20211017161055 17 157 1.6 8.0 0.00 0.00 0.00 42 1021.3
20211017160554 18 254 1.6 8.0 0.00 0.00 0.00 39 1021.4
20211017160125 17 265 3.2 6.4 0.00 0.00 0.00 44 1021.3
20211017155551 18 321 0.0 6.4 0.00 0.00 0.00 38 1021.4
20211017155108 18 351 1.6 4.8 0.00 0.00 0.00 42 1021.4
20211017154610 16 107 1.6 6.4 0.00 0.00 0.00 50 1021.4
20211017154110 16 259 3.2 8.0 0.00 0.00 0.00 41 1021.5
20211017153547 17 40 3.2 8.0 0.00 0.00 0.00 45 1021.6
20211017153141 18 305 3.2 6.4 0.00 0.00 0.00 47 1021.6
20211017152547 16 332 3.2 6.4 0.00 0.00 0.00 46 1021.6
20211017152042 16 66 1.6 4.8 0.00 0.00 0.00 46 1021.7
20211017151622 15 328 1.6 9.7 0.00 0.00 0.00 46 1021.6
20211017151043 15 360 1.6 11.3 0.00 0.00 0.00 53 1021.6
20211017150539 14 74 1.6 4.8 0.00 0.00 0.00 48 1021.7
20211017150222 14 247 1.6 4.8 0.00 0.00 0.00 51 1021.7
20211017145540 14 263 1.6 4.8 0.00 0.00 0.00 53 1021.8
20211017145034 13 320 1.6 6.4 0.00 0.00 0.00 58 1021.8
20211017144553 13 300 1.6 8.0 0.00 0.00 0.00 59 1021.7
20211017143530 13 115 1.6 4.8 0.00 0.00 0.00 57 1021.6
20211017143053 13 322 1.6 6.4 0.00 0.00 0.00 61 1021.8
20211017142539 12 304 1.6 6.4 0.00 0.00 0.00 63 1021.7
20211017142037 12 261 1.6 4.8 0.00 0.00 0.00 67 1021.7
20211017141555 12 231 0.0 4.8 0.00 0.00 0.00 67 1021.7
20211017141038 11 327 0.0 4.8 0.00 0.00 0.00 69 1021.7
20211017140534 11 316 1.6 4.8 0.00 0.00 0.00 71 1021.6
20211017140028 11 327 1.6 4.8 0.00 0.00 0.00 76 1021.6
20211017135523 10 60 0.0 0.0 0.00 0.00 0.00 81 1021.7
20211017135035 10 64 0.0 0.0 0.00 0.00 0.00 83 1021.7
20211017134721 10 39 0.0 0.0 0.00 0.00 0.00 86 1021.6
20211017134031 9 39 0.0 0.0 0.00 0.00 0.00 88 1021.5
20211017133521 8 39 0.0 0.0 0.00 0.00 0.00 90 1021.6
20211017133039 8 39 0.0 0.0 0.00 0.00 0.00 93 1021.5
20211017132521 7 39 0.0 0.0 0.00 0.00 0.00 96 1021.4
20211017132020 7 39 0.0 0.0 0.00 0.00 0.00 98 1021.4
20211017131524 6 39 0.0 0.0 0.00 0.00 0.00 98 1021.6
20211017131020 6 39 0.0 0.0 0.00 0.00 0.00 98 1021.5
20211017130519 6 37 0.0 0.0 0.00 0.00 0.00 97 1021.6
20211017130027 5 37 0.0 0.0 0.00 0.00 0.00 97 1021.5
20211017125535 5 37 0.0 0.0 0.00 0.00 0.00 97 1021.4
20211017125016 5 37 0.0 0.0 0.00 0.00 0.00 96 1021.5
20211017124523 5 37 0.0 0.0 0.00 0.00 0.00 96 1021.4
20211017124015 5 37 0.0 0.0 0.00 0.00 0.00 96 1021.3
20211017123518 5 37 0.0 0.0 0.00 0.00 0.00 96 1021.1
20211017123023 4 37 0.0 0.0 0.00 0.00 0.00 95 1021.1
20211017122519 4 37 0.0 0.0 0.00 0.00 0.00 95 1021.0
20211017122013 4 37 0.0 0.0 0.00 0.00 0.00 95 1020.9
20211017121512 4 37 0.0 0.0 0.00 0.00 0.00 95 1020.9
20211017121012 4 37 0.0 0.0 0.00 0.00 0.00 95 1020.9
20211017120510 4 37 0.0 0.0 0.00 0.00 0.00 94 1020.8
20211017120019 4 37 0.0 0.0 0.00 0.00 0.00 94 1020.8
20211017115531 4 37 0.0 0.0 0.00 0.00 0.00 94 1020.8
20211017115008 4 37 0.0 0.0 0.00 0.00 0.00 94 1020.6
20211017114508 4 37 0.0 0.0 0.00 0.00 0.00 94 1020.6
20211017114023 4 37 0.0 0.0 0.00 0.00 0.00 94 1020.5
20211017113505 4 37 0.0 0.0 0.00 0.00 0.00 94 1020.3
20211017113016 4 37 0.0 0.0 0.00 0.00 0.00 94 1020.2
20211017112504 4 37 0.0 0.0 0.00 0.00 0.00 94 1020.2
20211017112019 4 37 0.0 0.0 0.00 0.00 0.00 94 1020.2
20211017111504 5 37 0.0 0.0 0.00 0.00 0.00 94 1020.2
20211017111002 5 37 0.0 0.0 0.00 0.00 0.00 93 1020.1
20211017110502 5 37 0.0 0.0 0.00 0.00 0.00 93 1020.0
20211017110002 5 37 0.0 0.0 0.00 0.00 0.00 93 1019.9
20211017105502 5 37 0.0 0.0 0.00 0.00 0.00 93 1020.0
20211017105101 5 37 0.0 0.0 0.00 0.00 0.00 93 1020.0
20211017104644 5 37 0.0 0.0 0.00 0.00 0.00 93 1019.9
20211017104102 5 37 0.0 0.0 0.00 0.00 0.00 93 1019.9
20211017103611 5 37 0.0 0.0 0.00 0.00 0.00 93 1019.8
20211017103118 5 37 0.0 0.0 0.00 0.00 0.00 93 1019.8
20211017102607 5 37 0.0 0.0 0.00 0.00 0.00 93 1019.8
20211017102057 5 37 0.0 0.0 0.00 0.00 0.00 93 1019.8
20211017101618 5 30 0.0 0.0 0.00 0.00 0.00 92 1019.8
20211017101058 5 29 0.0 0.0 0.00 0.00 0.00 92 1019.8
20211017100555 5 29 0.0 0.0 0.00 0.00 0.00 92 1019.8
20211017100148 5 29 0.0 0.0 0.00 0.00 0.00 92 1019.8
20211017095554 5 29 0.0 0.0 0.00 0.00 0.00 92 1019.8
20211017095053 5 29 0.0 0.0 0.00 0.00 0.00 92 1019.8
20211017094641 5 29 0.0 0.0 0.00 0.00 0.00 91 1019.6
20211017094051 5 29 0.0 0.0 0.00 0.00 0.00 91 1019.6
20211017093551 5 29 0.0 0.0 0.00 0.00 0.00 91 1019.6
20211017093051 6 29 0.0 0.0 0.00 0.00 0.00 91 1019.5
20211017092550 6 29 0.0 0.0 0.00 0.00 0.00 90 1019.5
20211017092049 6 29 0.0 0.0 0.00 0.00 0.00 91 1019.4
20211017091809 6 29 0.0 0.0 0.00 0.00 0.00 90 1019.3
20211017091056 6 29 0.0 0.0 0.00 0.00 0.00 90 1019.3
20211017090548 6 29 0.0 0.0 0.00 0.00 0.00 90 1019.2
20211017090150 6 29 0.0 0.0 0.00 0.00 0.00 90 1019.2
20211017085546 6 29 0.0 0.0 0.00 0.00 0.00 88 1019.1
20211017085045 6 29 0.0 0.0 0.00 0.00 0.00 89 1019.0
20211017084635 6 29 0.0 0.0 0.00 0.00 0.00 89 1019.0
20211017084043 6 29 0.0 0.0 0.00 0.00 0.00 89 1019.0
20211017083548 6 29 0.0 0.0 0.00 0.00 0.00 88 1019.0
20211017083137 6 29 0.0 0.0 0.00 0.00 0.00 88 1019.0
20211017082541 6 29 0.0 0.0 0.00 0.00 0.00 87 1019.0
20211017082046 7 29 0.0 0.0 0.00 0.00 0.00 87 1019.0
20211017081611 7 29 0.0 0.0 0.00 0.00 0.00 86 1019.0
20211017081040 7 29 0.0 0.0 0.00 0.00 0.00 86 1019.1
20211017080539 7 29 0.0 0.0 0.00 0.00 0.00 85 1019.1
20211017080243 7 29 0.0 0.0 0.00 0.00 0.00 85 1019.0
20211017075536 7 29 0.0 0.0 0.00 0.00 0.00 85 1019.0
20211017075036 7 29 0.0 0.0 0.00 0.00 0.00 84 1019.1
20211017074552 7 29 0.0 0.0 0.00 0.00 0.00 84 1019.0
20211017074035 7 29 0.0 0.0 0.00 0.00 0.00 83 1019.1
20211017073533 8 29 0.0 0.0 0.00 0.00 0.00 82 1019.0
20211017073113 8 29 0.0 0.0 0.00 0.00 0.00 81 1019.0
20211017072531 8 29 0.0 0.0 0.00 0.00 0.00 81 1019.1
20211017072030 8 29 0.0 0.0 0.00 0.00 0.00 81 1019.1
20211017071601 8 29 0.0 0.0 0.00 0.00 0.00 81 1019.2
20211017071029 8 29 0.0 0.0 0.00 0.00 0.00 80 1019.2
20211017070528 8 29 0.0 0.0 0.00 0.00 0.00 80 1019.1
20211017070103 8 29 0.0 0.0 0.00 0.00 0.00 80 1019.0
20211017065530 8 29 0.0 0.0 0.00 0.00 0.00 80 1019.1
20211017065026 8 29 0.0 0.0 0.00 0.00 0.00 80 1019.1
20211017064614 8 29 0.0 0.0 0.00 0.00 0.00 80 1019.1
20211017064029 9 29 0.0 0.0 0.00 0.00 0.00 79 1019.0
20211017063543 9 29 0.0 0.0 0.00 0.00 0.00 79 1019.0
20211017063025 9 29 0.0 0.0 0.00 0.00 0.00 79 1019.0
20211017062522 9 29 0.0 0.0 0.00 0.00 0.00 79 1019.0
20211017062022 9 29 0.0 0.0 0.00 0.00 0.00 79 1019.0
20211017061524 9 29 0.0 0.0 0.00 0.00 0.00 79 1018.9
20211017061037 9 29 0.0 0.0 0.00 0.00 0.00 78 1018.8
20211017060525 9 30 0.0 0.0 0.00 0.00 0.00 79 1018.9
20211017060027 9 30 0.0 0.0 0.00 0.00 0.00 78 1018.8
20211017055524 9 29 0.0 0.0 0.00 0.00 0.00 77 1018.8
20211017055019 9 29 0.0 0.0 0.00 0.00 0.00 78 1018.6
20211017054524 10 29 0.0 0.0 0.00 0.00 0.00 79 1018.6
20211017054017 10 29 0.0 0.0 0.00 0.00 0.00 77 1018.5
20211017053517 10 29 0.0 0.0 0.00 0.00 0.00 79 1018.6
20211017053034 10 29 0.0 0.0 0.00 0.00 0.00 79 1018.5
20211017052516 10 29 0.0 0.0 0.00 0.00 0.00 79 1018.4
20211017052015 10 29 0.0 0.0 0.00 0.00 0.00 78 1018.4
20211017051540 10 29 0.0 0.0 0.00 0.00 0.00 78 1018.3
20211017051019 10 29 0.0 0.0 0.00 0.00 0.00 77 1018.2
20211017050513 10 29 0.0 0.0 0.00 0.00 0.00 76 1018.1
20211017050013 10 29 0.0 0.0 0.00 0.00 0.00 76 1018.1
20211017045518 10 29 0.0 0.0 0.00 0.00 0.00 75 1018.1
20211017045011 10 29 0.0 0.0 0.00 0.00 0.00 74 1018.1
20211017044511 10 29 0.0 0.0 0.00 0.00 0.00 73 1018.1
20211017044008 11 29 0.0 0.0 0.00 0.00 0.00 74 1018.1
20211017043507 11 29 0.0 0.0 0.00 0.00 0.00 74 1018.1
20211017043007 11 29 0.0 0.0 0.00 0.00 0.00 72 1018.1
20211017042513 11 29 0.0 0.0 0.00 0.00 0.00 71 1018.1
20211017042021 11 29 0.0 0.0 0.00 0.00 0.00 71 1017.9
20211017041517 11 29 0.0 0.0 0.00 0.00 0.00 71 1018.0
20211017041010 11 29 0.0 0.0 0.00 0.00 0.00 70 1018.0
20211017040108 12 29 0.0 0.0 0.00 0.00 0.00 70 1017.8
20211017035601 12 29 0.0 0.0 0.00 0.00 0.00 68 1017.9
20211017035101 12 29 0.0 0.0 0.00 0.00 0.00 67 1017.9
20211017034703 12 29 0.0 0.0 0.00 0.00 0.00 65 1017.8
20211017034054 12 29 0.0 0.0 0.00 0.00 0.00 63 1017.7
20211017033554 13 29 0.0 0.0 0.00 0.00 0.00 63 1017.7
20211017033106 13 29 0.0 0.0 0.00 0.00 0.00 63 1017.7
20211017032552 13 29 0.0 0.0 0.00 0.00 0.00 60 1017.7
20211017032052 13 29 0.0 0.0 0.00 0.00 0.00 58 1017.7
20211017031615 13 29 0.0 0.0 0.00 0.00 0.00 59 1017.6
20211017031049 13 29 0.0 0.0 0.00 0.00 0.00 58 1017.5
20211017030549 13 29 0.0 0.0 0.00 0.00 0.00 58 1017.6
20211017030122 14 29 0.0 0.0 0.00 0.00 0.00 56 1017.7
20211017025546 14 29 0.0 0.0 0.00 0.00 0.00 55 1017.5
20211017025050 14 29 0.0 0.0 0.00 0.00 0.00 55 1017.5
20211017024630 14 29 0.0 0.0 0.00 0.00 0.00 54 1017.4
20211017024045 15 29 0.0 1.6 0.00 0.00 0.00 55 1017.3
20211017023543 15 28 0.0 1.6 0.00 0.00 0.00 55 1017.3
20211017023108 15 28 0.0 1.6 0.00 0.00 0.00 54 1017.2
20211017022543 15 28 0.0 3.2 0.00 0.00 0.00 53 1017.2
20211017022042 15 28 0.0 3.2 0.00 0.00 0.00 52 1017.2
20211017021713 15 13 0.0 3.2 0.00 0.00 0.00 53 1017.0
20211017021043 15 13 0.0 3.2 0.00 0.00 0.00 53 1016.9
20211017020540 15 251 1.6 3.2 0.00 0.00 0.00 53 1016.9
20211017020118 15 250 0.0 1.6 0.00 0.00 0.00 52 1016.8
20211017015559 15 250 0.0 12.9 0.00 0.00 0.00 52 1016.8
20211017015038 16 253 0.0 12.9 0.00 0.00 0.00 51 1016.7
20211017014656 16 292 0.0 8.0 0.00 0.00 0.00 51 1016.6
20211017014043 16 186 1.6 8.0 0.00 0.00 0.00 51 1016.5
20211017013545 16 274 1.6 6.4 0.00 0.00 0.00 52 1016.5
20211017013110 16 317 1.6 6.4 0.00 0.00 0.00 52 1016.4
20211017012544 16 329 1.6 6.4 0.00 0.00 0.00 53 1016.3
20211017012035 16 329 1.6 6.4 0.00 0.00 0.00 52 1016.2
20211017011614 16 331 1.6 4.8 0.00 0.00 0.00 52 1016.2
20211017011040 16 60 1.6 4.8 0.00 0.00 0.00 51 1016.0
20211017010548 16 335 0.0 6.4 0.00 0.00 0.00 51 1015.8
20211017010059 16 335 1.6 6.4 0.00 0.00 0.00 50 1015.9
20211017005536 16 331 1.6 6.4 0.00 0.00 0.00 50 1015.8
20211017005036 17 277 1.6 4.8 0.00 0.00 0.00 49 1015.6
20211017004533 17 360 1.6 4.8 0.00 0.00 0.00 49 1015.6
20211017004031 17 355 1.6 4.8 0.00 0.00 0.00 50 1015.5
20211017003530 17 42 1.6 4.8 0.00 0.00 0.00 48 1015.5
20211017003035 17 226 1.6 4.8 0.00 0.00 0.00 47 1015.4
20211017002529 17 294 1.6 8.0 0.00 0.00 0.00 47 1015.4
20211017002028 17 347 3.2 8.0 0.00 0.00 0.00 48 1015.3
20211017001536 17 317 3.2 6.4 0.00 0.00 0.00 48 1015.2
20211017001040 17 290 3.2 8.0 0.00 0.00 0.00 49 1015.1
20211017000547 17 323 3.2 8.0 0.00 0.00 0.00 49 1015.0
20211017000052 17 320 1.6 4.8 0.00 0.00 0.00 49 1014.9
20211016235526 17 329 1.6 6.4 0.00 0.00 0.00 50 1014.8
20211016235026 18 306 1.6 6.4 0.00 0.00 0.00 50 1014.8
20211016234529 18 309 0.0 4.8 0.00 0.00 0.00 52 1014.6
20211016234028 18 302 0.0 0.0 0.00 0.00 0.00 52 1014.5
20211016233523 18 302 0.0 0.0 0.00 0.00 0.00 52 1014.4
20211016233028 18 302 0.0 0.0 0.00 0.00 0.00 52 1014.2
20211016232521 18 302 0.0 0.0 0.00 0.00 0.00 51 1014.2
20211016232032 18 302 0.0 0.0 0.00 0.00 0.00 49 1014.0
20211016231534 19 263 0.0 0.0 0.00 0.00 0.00 50 1013.9
20211016231045 19 296 0.0 0.0 0.00 0.00 0.00 49 1013.7
20211016230521 19 254 0.0 0.0 0.00 0.00 0.00 48 1013.6
20211016230037 20 282 0.0 1.6 0.00 0.00 0.00 48 1013.5
20211016225520 20 302 0.0 8.0 0.00 0.00 0.00 47 1013.3
20211016225041 20 298 3.2 8.0 0.00 0.00 0.00 46 1013.2
20211016224526 20 333 1.6 4.8 0.00 0.00 0.00 47 1013.2
20211016224040 20 325 1.6 4.8 0.00 0.00 0.00 46 1013.0
20211016223521 20 321 1.6 4.8 0.00 0.00 0.00 45 1013.0
20211016223021 21 326 1.6 4.8 0.00 0.00 0.00 44 1012.9
20211016222524 21 310 1.6 4.8 0.00 0.00 0.00 42 1012.9
20211016222017 21 345 1.6 4.8 0.00 0.00 0.00 41 1012.8
20211016221533 21 345 3.2 8.0 0.00 0.00 0.00 40 1012.6
20211016221022 21 300 3.2 8.0 0.00 0.00 0.00 39 1012.6
20211016220517 21 329 3.2 8.0 0.00 0.00 0.00 40 1012.5
20211016220026 22 311 1.6 8.0 0.00 0.00 0.00 40 1012.4
20211016215523 22 269 1.6 6.4 0.00 0.00 0.00 39 1012.3
20211016215017 22 288 1.6 9.7 0.00 0.00 0.00 37 1012.3
20211016214549 22 339 3.2 14.5 0.00 0.00 0.00 35 1012.2
20211016214015 22 270 4.8 14.5 0.00 0.00 0.00 36 1012.1
20211016213536 23 240 3.2 11.3 0.00 0.00 0.00 41 1012.0
20211016213018 23 301 1.6 11.3 0.00 0.00 0.00 44 1012.0
20211016212514 23 309 4.8 9.7 0.00 0.00 0.00 43 1011.9
20211016212020 23 282 3.2 12.9 0.00 0.00 0.00 46 1011.7
20211016211530 24 306 1.6 12.9 0.00 0.00 0.00 47 1011.6
20211016211032 25 261 3.2 11.3 0.00 0.00 0.00 45 1011.5
20211016210513 25 235 3.2 8.0 0.00 0.00 0.00 46 1011.4
20211016210038 25 290 1.6 11.3 0.00 0.00 0.00 49 1011.3
20211016205521 25 304 3.2 11.3 0.00 0.00 0.00 47 1011.2
20211016205021 25 51 3.2 11.3 0.00 0.00 0.00 48 1011.1
20211016204543 25 297 4.8 11.3 0.00 0.00 0.00 46 1011.1
20211016204011 25 319 3.2 11.3 0.00 0.00 0.00 50 1011.1
20211016203530 25 350 1.6 12.9 0.00 0.00 0.00 50 1011.1
20211016203036 25 288 3.2 12.9 0.00 0.00 0.00 50 1011.0
20211016202520 25 327 1.6 6.4 0.00 0.00 0.00 49 1010.9
20211016202015 26 198 3.2 9.7 0.00 0.00 0.00 48 1010.9
20211016201514 26 346 3.2 9.7 0.00 0.00 0.00 47 1010.8
20211016201010 26 311 1.6 12.9 0.00 0.00 0.00 52 1010.6
20211016200510 26 302 3.2 8.0 0.00 0.00 0.00 52 1010.7
20211016200018 25 194 3.2 8.0 0.00 0.00 0.00 55 1010.6
20211016195509 25 293 3.2 12.9 0.00 0.00 0.00 52 1010.6
20211016195010 25 331 3.2 12.9 0.00 0.00 0.00 54 1010.4
20211016194529 26 309 1.6 9.7 0.00 0.00 0.00 53 1010.1
20211016194009 26 261 3.2 9.7 0.00 0.00 0.00 53 1010.1
20211016193521 27 304 3.2 8.0 0.00 0.00 0.00 54 1009.9
20211016193009 27 308 1.6 6.4 0.00 0.00 0.00 58 1009.7
20211016192508 27 298 1.6 6.4 0.00 0.00 0.00 57 1009.6
20211016192009 27 303 0.0 4.8 0.00 0.00 0.00 66 1009.6
20211016191520 26 276 1.6 8.0 0.00 0.00 0.00 65 1009.7
20211016191013 27 312 1.6 12.9 0.00 0.00 0.00 59 1009.6
20211016190511 28 333 4.8 12.9 0.00 0.00 0.00 53 1009.4
20211016190023 30 300 1.6 6.4 0.00 0.00 0.00 49 1009.1
20211016185509 31 333 1.6 6.4 0.00 0.00 0.00 49 1008.9
20211016185011 31 306 3.2 12.9 0.00 0.00 0.00 50 1008.8
20211016184516 29 267 3.2 14.5 0.00 0.00 0.00 53 1008.8
20211016184010 30 217 1.6 12.9 0.00 0.00 0.00 50 1008.8
20211016183506 31 248 4.8 12.9 0.00 0.00 0.00 49 1008.7
20211016183026 30 290 3.2 12.9 0.00 0.00 0.00 51 1008.9
20211016182509 29 284 3.2 16.1 0.00 0.00 0.00 52 1008.9
20211016182005 30 313 3.2 19.3 0.00 0.00 0.00 51 1009.0
20211016181515 30 197 4.8 11.3 0.00 0.00 0.00 48 1009.1
20211016181009 30 314 3.2 11.3 0.00 0.00 0.00 52 1009.1
20211016180508 28 235 1.6 16.1 0.00 0.00 0.00 57 1009.0
20211016180005 28 230 3.2 16.1 0.00 0.00 0.00 56 1009.1
20211016175503 28 166 6.4 16.1 0.00 0.00 0.00 56 1009.3
20211016175002 28 276 3.2 12.9 0.00 0.00 0.00 56 1009.2
20211016174505 28 291 4.8 16.1 0.00 0.00 0.00 58 1009.2
20211016174002 29 173 4.8 17.7 0.00 0.00 0.00 51 1009.3
20211016173502 28 273 3.2 12.9 0.00 0.00 0.00 55 1009.4
20211016173004 27 275 4.8 14.5 0.00 0.00 0.00 58 1009.4
20211016172602 27 194 3.2 14.5 0.00 0.00 0.00 57 1009.6
20211016172058 29 281 1.6 9.7 0.00 0.00 0.00 56 1009.6
20211016171648 30 273 1.6 9.7 0.00 0.00 0.00 56 1009.7
20211016171100 28 284 1.6 12.9 0.00 0.00 0.00 56 1009.6
20211016170609 27 331 3.2 17.7 0.00 0.00 0.00 60 1009.7
20211016170154 27 240 6.4 24.1 0.00 0.00 0.00 60 1009.6
20211016165607 27 227 9.7 24.1 0.00 0.00 0.00 57 1009.8
20211016165057 28 128 6.4 24.1 0.00 0.00 0.00 56 1009.7
20211016164630 27 323 3.2 22.5 0.00 0.00 0.00 62 1009.7
20211016164114 27 231 6.4 22.5 0.00 0.00 0.00 60 1009.8
20211016163626 27 203 6.4 14.5 0.00 0.00 0.00 61 1009.7
20211016163144 27 265 4.8 16.1 0.00 0.00 0.00 60 1009.8
20211016162552 27 236 3.2 25.7 0.00 0.00 0.00 61 1009.8
20211016162053 27 246 8.0 25.7 0.00 0.00 0.00 60 1009.8
20211016161640 27 153 1.6 12.9 0.00 0.00 0.00 64 1009.8